createdAt,value
2022-09-15T00:00:57.816Z,0.00
2022-09-15T00:01:57.860Z,0.00
2022-09-15T00:02:57.817Z,0.00
2022-09-15T00:03:57.985Z,0.00
2022-09-15T00:04:57.795Z,0.00
2022-09-15T00:05:57.757Z,0.00
2022-09-15T00:06:57.744Z,0.00
2022-09-15T00:07:57.738Z,0.00
2022-09-15T00:08:57.787Z,0.00
2022-09-15T00:09:57.744Z,0.00
2022-09-15T00:10:57.730Z,0.00
2022-09-15T00:11:57.704Z,0.00
2022-09-15T00:12:57.684Z,0.00
2022-09-15T00:13:57.793Z,0.00
2022-09-15T00:14:57.679Z,0.00
2022-09-15T00:15:57.663Z,0.00
2022-09-15T00:16:57.689Z,0.00
2022-09-15T00:17:57.638Z,0.00
2022-09-15T00:18:57.661Z,0.00
2022-09-15T00:19:57.653Z,0.00
2022-09-15T00:20:57.621Z,0.00
2022-09-15T00:21:57.592Z,0.00
2022-09-15T00:22:57.588Z,0.00
2022-09-15T00:23:57.695Z,0.00
2022-09-15T00:24:57.555Z,0.00
2022-09-15T00:25:57.840Z,0.00
2022-09-15T00:26:57.578Z,0.00
2022-09-15T00:27:57.545Z,0.00
2022-09-15T00:28:57.622Z,0.00
2022-09-15T00:29:57.515Z,0.00
2022-09-15T00:30:57.562Z,0.00
2022-09-15T00:31:57.511Z,0.00
2022-09-15T00:32:57.475Z,0.00
2022-09-15T00:33:57.548Z,0.00
2022-09-15T00:34:57.467Z,0.00
2022-09-15T00:35:57.456Z,0.00
2022-09-15T00:36:57.458Z,0.00
2022-09-15T00:37:57.467Z,0.00
2022-09-15T00:38:57.506Z,0.00
2022-09-15T00:39:57.492Z,0.00
2022-09-15T00:40:57.405Z,0.00
2022-09-15T00:41:57.407Z,0.00
2022-09-15T00:42:57.428Z,0.00
2022-09-15T00:43:57.465Z,0.00
2022-09-15T00:44:57.368Z,0.00
2022-09-15T00:45:57.476Z,0.00
2022-09-15T00:47:15.628Z,0.00
2022-09-15T00:47:57.350Z,0.00
2022-09-15T00:48:57.329Z,0.00
2022-09-15T00:49:59.318Z,0.00
2022-09-15T00:50:57.302Z,0.00
2022-09-15T00:51:57.389Z,0.00
2022-09-15T00:52:57.279Z,0.00
2022-09-15T00:53:57.270Z,0.00
2022-09-15T00:54:57.248Z,0.00
2022-09-15T00:55:57.238Z,0.00
2022-09-15T00:56:57.238Z,0.00
2022-09-15T00:57:57.228Z,0.00
2022-09-15T00:58:57.282Z,0.00
2022-09-15T00:59:57.189Z,0.00
2022-09-15T01:00:57.307Z,0.00
2022-09-15T01:01:57.234Z,0.00
2022-09-15T01:02:57.190Z,0.00
2022-09-15T01:03:57.192Z,0.00
2022-09-15T01:04:58.531Z,0.00
2022-09-15T01:05:57.154Z,0.00
2022-09-15T01:06:57.143Z,0.00
2022-09-15T01:07:57.113Z,0.00
2022-09-15T01:08:57.116Z,0.00
2022-09-15T01:09:57.092Z,0.00
2022-09-15T01:10:57.085Z,0.00
2022-09-15T01:11:57.071Z,0.00
2022-09-15T01:12:57.079Z,0.00
2022-09-15T01:13:57.069Z,0.00
2022-09-15T01:14:57.067Z,0.00
2022-09-15T01:15:57.026Z,0.00
2022-09-15T01:16:57.145Z,0.00
2022-09-15T01:17:57.009Z,0.00
2022-09-15T01:18:57.017Z,0.00
2022-09-15T01:19:57.004Z,0.00
2022-09-15T01:20:57.009Z,0.00
2022-09-15T01:21:58.957Z,0.00
2022-09-15T01:22:56.972Z,0.00
2022-09-15T01:23:56.934Z,0.00
2022-09-15T01:24:56.957Z,0.00
2022-09-15T01:25:56.939Z,0.00
2022-09-15T01:26:56.918Z,0.00
2022-09-15T01:27:56.904Z,0.00
2022-09-15T01:28:56.919Z,0.00
2022-09-15T01:29:56.882Z,0.00
2022-09-15T01:30:56.880Z,0.00
2022-09-15T01:31:56.914Z,0.00
2022-09-15T01:32:56.858Z,0.00
2022-09-15T01:33:56.868Z,0.00
2022-09-15T01:34:56.846Z,0.00
2022-09-15T01:35:56.867Z,0.00
2022-09-15T01:36:56.816Z,0.00
2022-09-15T01:37:56.794Z,0.00
2022-09-15T01:38:56.848Z,0.00
2022-09-15T01:39:56.859Z,0.00
2022-09-15T01:40:56.791Z,0.00
2022-09-15T01:41:56.762Z,0.00
2022-09-15T01:42:56.767Z,0.00
2022-09-15T01:43:56.726Z,0.00
2022-09-15T01:44:56.740Z,0.00
2022-09-15T01:45:56.764Z,0.00
2022-09-15T01:46:56.709Z,0.00
2022-09-15T01:47:56.697Z,0.00
2022-09-15T01:48:56.696Z,0.00
2022-09-15T01:49:56.661Z,0.00
2022-09-15T01:50:56.694Z,0.00
2022-09-15T01:51:56.639Z,0.00
2022-09-15T01:52:56.647Z,0.00
2022-09-15T01:53:56.632Z,0.00
2022-09-15T01:54:56.631Z,0.00
2022-09-15T01:55:56.624Z,0.00
2022-09-15T01:56:56.606Z,0.00
2022-09-15T01:57:56.615Z,0.00
2022-09-15T01:58:56.618Z,0.00
2022-09-15T01:59:56.564Z,0.00
2022-09-15T02:00:56.641Z,0.00
2022-09-15T02:01:56.604Z,0.00
2022-09-15T02:02:56.543Z,0.00
2022-09-15T02:03:56.517Z,0.00
2022-09-15T02:04:56.526Z,0.00
2022-09-15T02:05:56.500Z,0.00
2022-09-15T02:06:56.526Z,0.00
2022-09-15T02:07:56.468Z,0.00
2022-09-15T02:08:56.471Z,0.00
2022-09-15T02:09:56.469Z,0.00
2022-09-15T02:10:56.492Z,0.00
2022-09-15T02:11:56.454Z,0.00
2022-09-15T02:12:56.457Z,0.00
2022-09-15T02:13:56.441Z,0.00
2022-09-15T02:14:56.451Z,0.00
2022-09-15T02:15:56.388Z,0.00
2022-09-15T02:16:56.384Z,0.00
2022-09-15T02:17:56.390Z,0.00
2022-09-15T02:18:56.365Z,0.00
2022-09-15T02:19:56.353Z,0.00
2022-09-15T02:20:56.362Z,0.00
2022-09-15T02:21:56.324Z,0.00
2022-09-15T02:22:56.350Z,0.00
2022-09-15T02:23:56.360Z,0.00
2022-09-15T02:24:56.293Z,0.00
2022-09-15T02:25:56.290Z,0.00
2022-09-15T02:26:56.281Z,0.00
2022-09-15T02:27:56.290Z,0.00
2022-09-15T02:28:56.266Z,0.00
2022-09-15T02:29:56.261Z,0.00
2022-09-15T02:30:56.246Z,0.00
2022-09-15T02:31:56.309Z,0.00
2022-09-15T02:32:56.313Z,0.00
2022-09-15T02:33:56.199Z,0.00
2022-09-15T02:34:56.200Z,0.00
2022-09-15T02:35:56.188Z,0.00
2022-09-15T02:36:56.166Z,0.00
2022-09-15T02:37:56.172Z,0.00
2022-09-15T02:38:56.199Z,0.00
2022-09-15T02:39:56.168Z,0.00
2022-09-15T02:40:56.132Z,0.00
2022-09-15T02:41:56.223Z,0.00
2022-09-15T02:42:56.104Z,0.00
2022-09-15T02:43:56.095Z,0.00
2022-09-15T02:44:56.083Z,0.00
2022-09-15T02:45:56.109Z,0.00
2022-09-15T02:46:56.067Z,0.00
2022-09-15T02:47:56.032Z,0.00
2022-09-15T02:48:56.180Z,0.00
2022-09-15T02:49:56.019Z,0.00
2022-09-15T02:50:56.014Z,0.00
2022-09-15T02:51:55.984Z,0.00
2022-09-15T02:52:56.091Z,0.00
2022-09-15T02:53:56.035Z,0.00
2022-09-15T02:54:55.965Z,0.00
2022-09-15T02:55:55.942Z,0.00
2022-09-15T02:56:55.956Z,0.00
2022-09-15T02:57:55.929Z,0.00
2022-09-15T02:58:55.922Z,0.00
2022-09-15T02:59:55.941Z,0.00
2022-09-15T03:00:55.957Z,0.00
2022-09-15T03:01:55.933Z,0.00
2022-09-15T03:02:55.882Z,0.00
2022-09-15T03:03:55.907Z,0.00
2022-09-15T03:04:55.850Z,0.00
2022-09-15T03:05:55.921Z,0.00
2022-09-15T03:06:55.839Z,0.00
2022-09-15T03:07:55.842Z,0.00
2022-09-15T03:08:56.073Z,0.00
2022-09-15T03:09:55.802Z,0.00
2022-09-15T03:10:55.801Z,0.00
2022-09-15T03:11:55.771Z,0.00
2022-09-15T03:12:55.767Z,0.00
2022-09-15T03:13:55.766Z,0.00
2022-09-15T03:14:55.783Z,0.00
2022-09-15T03:15:55.836Z,0.00
2022-09-15T03:16:55.718Z,0.00
2022-09-15T03:17:55.706Z,0.00
2022-09-15T03:18:55.703Z,0.00
2022-09-15T03:19:55.695Z,0.00
2022-09-15T03:20:55.677Z,0.00
2022-09-15T03:21:55.658Z,0.00
2022-09-15T03:22:55.667Z,0.00
2022-09-15T03:23:55.627Z,0.00
2022-09-15T03:24:55.642Z,0.00
2022-09-15T03:25:55.655Z,0.00
2022-09-15T03:26:59.511Z,0.00
2022-09-15T03:27:55.589Z,0.00
2022-09-15T03:28:55.621Z,0.00
2022-09-15T03:29:55.590Z,0.00
2022-09-15T03:30:55.570Z,0.00
2022-09-15T03:31:55.571Z,0.00
2022-09-15T03:32:55.540Z,0.00
2022-09-15T03:33:55.554Z,0.00
2022-09-15T03:34:58.543Z,0.00
2022-09-15T03:35:55.567Z,0.00
2022-09-15T03:36:55.497Z,0.00
2022-09-15T03:37:55.476Z,0.00
2022-09-15T03:38:55.482Z,0.00
2022-09-15T03:39:55.488Z,0.00
2022-09-15T03:40:55.469Z,0.00
2022-09-15T03:41:55.443Z,0.00
2022-09-15T03:42:55.433Z,0.00
2022-09-15T03:43:55.410Z,0.00
2022-09-15T03:44:55.418Z,0.00
2022-09-15T03:45:55.464Z,0.00
2022-09-15T03:46:56.423Z,0.00
2022-09-15T03:47:55.371Z,0.00
2022-09-15T03:48:55.361Z,0.00
2022-09-15T03:49:55.363Z,0.00
2022-09-15T03:50:55.357Z,0.00
2022-09-15T03:51:55.323Z,0.00
2022-09-15T03:52:58.717Z,0.00
2022-09-15T03:53:55.305Z,0.00
2022-09-15T03:54:55.298Z,0.00
2022-09-15T03:55:55.291Z,0.00
2022-09-15T03:56:55.292Z,0.00
2022-09-15T03:57:55.258Z,0.00
2022-09-15T03:58:55.271Z,0.00
2022-09-15T03:59:55.235Z,0.00
2022-09-15T04:00:55.288Z,0.00
2022-09-15T04:01:55.354Z,0.00
2022-09-15T04:02:55.231Z,0.00
2022-09-15T04:03:55.195Z,0.00
2022-09-15T04:04:56.615Z,0.00
2022-09-15T04:05:55.170Z,0.00
2022-09-15T04:06:55.219Z,0.00
2022-09-15T04:07:55.146Z,0.00
2022-09-15T04:08:55.156Z,0.00
2022-09-15T04:09:55.128Z,0.00
2022-09-15T04:10:55.126Z,0.00
2022-09-15T04:11:55.139Z,0.00
2022-09-15T04:12:55.176Z,0.00
2022-09-15T04:13:55.087Z,0.00
2022-09-15T04:14:55.117Z,0.00
2022-09-15T04:15:55.135Z,0.00
2022-09-15T04:16:56.051Z,0.00
2022-09-15T04:17:55.060Z,0.00
2022-09-15T04:18:55.054Z,0.00
2022-09-15T04:19:55.060Z,0.00
2022-09-15T04:20:55.016Z,0.00
2022-09-15T04:21:55.010Z,0.00
2022-09-15T04:22:55.136Z,0.00
2022-09-15T04:23:55.000Z,0.00
2022-09-15T04:24:55.001Z,0.00
2022-09-15T04:25:55.401Z,0.00
2022-09-15T04:26:54.971Z,0.00
2022-09-15T04:27:54.972Z,0.00
2022-09-15T04:28:54.944Z,0.00
2022-09-15T04:29:54.904Z,0.00
2022-09-15T04:30:54.912Z,0.00
2022-09-15T04:31:54.948Z,0.00
2022-09-15T04:32:54.886Z,0.00
2022-09-15T04:33:55.108Z,0.00
2022-09-15T04:34:54.860Z,0.00
2022-09-15T04:35:54.841Z,0.00
2022-09-15T04:36:54.866Z,0.00
2022-09-15T04:37:54.817Z,0.00
2022-09-15T04:38:54.842Z,0.00
2022-09-15T04:39:54.799Z,1.00
2022-09-15T04:40:54.782Z,0.00
2022-09-15T04:41:54.779Z,0.00
2022-09-15T04:42:54.766Z,0.00
2022-09-15T04:43:54.708Z,1.00
2022-09-15T04:44:54.775Z,0.00
2022-09-15T04:45:54.718Z,1.00
2022-09-15T04:46:54.822Z,1.00
2022-09-15T04:47:54.700Z,4.00
2022-09-15T04:48:54.653Z,7.00
2022-09-15T04:49:54.683Z,4.00
2022-09-15T04:50:54.630Z,3.00
2022-09-15T04:51:54.607Z,2.00
2022-09-15T04:52:54.617Z,5.00
2022-09-15T04:53:54.653Z,6.00
2022-09-15T04:54:54.618Z,4.00
2022-09-15T04:55:54.571Z,7.00
2022-09-15T04:56:54.555Z,9.00
2022-09-15T04:57:54.564Z,13.00
2022-09-15T04:58:56.480Z,15.00
2022-09-15T04:59:54.537Z,15.00
2022-09-15T05:00:54.566Z,21.00
2022-09-15T05:01:54.562Z,22.00
2022-09-15T05:02:54.485Z,28.00
2022-09-15T05:03:55.990Z,30.00
2022-09-15T05:04:54.486Z,36.00
2022-09-15T05:05:54.484Z,40.00
2022-09-15T05:06:54.450Z,48.00
2022-09-15T05:07:58.552Z,49.00
2022-09-15T05:08:54.435Z,55.00
2022-09-15T05:09:54.422Z,56.00
2022-09-15T05:10:54.404Z,55.00
2022-09-15T05:11:54.437Z,59.00
2022-09-15T05:12:54.413Z,62.00
2022-09-15T05:13:54.376Z,73.00
2022-09-15T05:14:54.400Z,87.00
2022-09-15T05:15:54.420Z,95.00
2022-09-15T05:16:54.338Z,109.00
2022-09-15T05:17:54.348Z,116.00
2022-09-15T05:18:54.343Z,123.00
2022-09-15T05:19:54.317Z,129.00
2022-09-15T05:20:54.395Z,135.00
2022-09-15T05:21:54.285Z,135.00
2022-09-15T05:22:54.280Z,144.00
2022-09-15T05:23:54.280Z,162.00
2022-09-15T05:24:54.245Z,166.00
2022-09-15T05:25:54.241Z,168.00
2022-09-15T05:26:54.256Z,167.00
2022-09-15T05:27:54.241Z,167.00
2022-09-15T05:28:54.302Z,160.00
2022-09-15T05:30:09.792Z,159.00
2022-09-15T05:30:54.335Z,176.00
2022-09-15T05:31:54.299Z,197.00
2022-09-15T05:32:54.186Z,202.00
2022-09-15T05:33:54.189Z,198.00
2022-09-15T05:34:54.134Z,200.00
2022-09-15T05:35:54.137Z,216.00
2022-09-15T05:36:54.121Z,237.00
2022-09-15T05:37:54.126Z,266.00
2022-09-15T05:38:54.124Z,265.00
2022-09-15T05:39:54.139Z,263.00
2022-09-15T05:40:54.077Z,275.00
2022-09-15T05:41:54.066Z,296.00
2022-09-15T05:42:54.063Z,318.00
2022-09-15T05:43:54.058Z,336.00
2022-09-15T05:44:54.030Z,342.00
2022-09-15T05:45:54.084Z,364.00
2022-09-15T05:46:54.128Z,375.00
2022-09-15T05:47:54.038Z,378.00
2022-09-15T05:48:54.037Z,394.00
2022-09-15T05:49:53.994Z,397.00
2022-09-15T05:50:53.974Z,417.00
2022-09-15T05:51:53.964Z,475.00
2022-09-15T05:52:54.120Z,464.00
2022-09-15T05:53:53.977Z,466.00
2022-09-15T05:54:58.854Z,454.00
2022-09-15T05:55:53.941Z,430.00
2022-09-15T05:56:53.914Z,441.00
2022-09-15T05:57:53.920Z,456.00
2022-09-15T05:58:53.943Z,442.00
2022-09-15T05:59:53.915Z,433.00
2022-09-15T06:00:53.870Z,427.00
2022-09-15T06:01:53.915Z,425.00
2022-09-15T06:02:53.942Z,459.00
2022-09-15T06:03:53.864Z,488.00
2022-09-15T06:04:53.828Z,486.00
2022-09-15T06:05:53.834Z,571.00
2022-09-15T06:06:53.788Z,691.00
2022-09-15T06:07:53.821Z,787.00
2022-09-15T06:08:57.729Z,742.00
2022-09-15T06:09:53.768Z,694.00
2022-09-15T06:10:53.757Z,665.00
2022-09-15T06:11:53.759Z,606.00
2022-09-15T06:12:53.745Z,611.00
2022-09-15T06:13:53.754Z,618.00
2022-09-15T06:14:53.739Z,658.00
2022-09-15T06:15:53.728Z,671.00
2022-09-15T06:16:53.689Z,640.00
2022-09-15T06:17:53.679Z,664.00
2022-09-15T06:18:53.840Z,759.00
2022-09-15T06:19:53.671Z,826.00
2022-09-15T06:20:53.647Z,887.00
2022-09-15T06:21:53.639Z,918.00
2022-09-15T06:22:53.621Z,929.00
2022-09-15T06:23:54.036Z,860.00
2022-09-15T06:24:53.607Z,819.00
2022-09-15T06:25:53.599Z,754.00
2022-09-15T06:26:53.577Z,688.00
2022-09-15T06:27:53.578Z,641.00
2022-09-15T06:28:53.561Z,633.00
2022-09-15T06:29:53.606Z,628.00
2022-09-15T06:30:53.544Z,624.00
2022-09-15T06:31:53.584Z,624.00
2022-09-15T06:32:53.539Z,617.00
2022-09-15T06:33:53.725Z,630.00
2022-09-15T06:34:53.541Z,642.00
2022-09-15T06:35:53.497Z,659.00
2022-09-15T06:36:53.494Z,693.00
2022-09-15T06:37:53.477Z,722.00
2022-09-15T06:38:53.509Z,746.00
2022-09-15T06:39:53.555Z,761.00
2022-09-15T06:40:53.434Z,735.00
2022-09-15T06:42:02.163Z,714.00
2022-09-15T06:42:53.447Z,657.00
2022-09-15T06:43:53.644Z,670.00
2022-09-15T06:44:53.422Z,684.00
2022-09-15T06:45:53.978Z,716.00
2022-09-15T06:46:53.514Z,800.00
2022-09-15T06:48:13.390Z,837.00
2022-09-15T06:48:53.394Z,920.00
2022-09-15T06:49:53.442Z,1005.00
2022-09-15T06:50:53.454Z,1038.00
2022-09-15T06:51:53.681Z,1007.00
2022-09-15T06:52:53.494Z,935.00
2022-09-15T06:53:53.461Z,940.00
2022-09-15T06:54:53.334Z,1024.00
2022-09-15T06:55:53.361Z,1175.00
2022-09-15T06:56:53.468Z,1276.00
2022-09-15T06:57:53.261Z,1297.00
2022-09-15T06:58:53.360Z,1227.00
2022-09-15T06:59:53.405Z,1096.00
2022-09-15T07:00:53.241Z,995.00
2022-09-15T07:01:53.247Z,942.00
2022-09-15T07:02:53.402Z,881.00
2022-09-15T07:03:53.297Z,862.00
2022-09-15T07:04:53.204Z,1031.00
2022-09-15T07:05:53.281Z,1080.00
2022-09-15T07:06:53.197Z,977.00
2022-09-15T07:07:53.159Z,902.00
2022-09-15T07:08:54.378Z,939.00
2022-09-15T07:09:53.136Z,965.00
2022-09-15T07:10:53.115Z,963.00
2022-09-15T07:11:53.154Z,948.00
2022-09-15T07:12:53.125Z,1064.00
2022-09-15T07:13:53.308Z,1182.00
2022-09-15T07:14:53.076Z,1237.00
2022-09-15T07:15:53.224Z,1198.00
2022-09-15T07:16:53.063Z,1106.00
2022-09-15T07:17:53.220Z,1122.00
2022-09-15T07:18:53.084Z,1151.00
2022-09-15T07:19:53.097Z,1170.00
2022-09-15T07:20:53.056Z,1227.00
2022-09-15T07:21:53.440Z,1304.00
2022-09-15T07:22:52.989Z,1437.00
2022-09-15T07:23:53.147Z,1543.00
2022-09-15T07:24:53.136Z,1560.00
2022-09-15T07:25:53.023Z,1584.00
2022-09-15T07:26:53.016Z,1639.00
2022-09-15T07:27:53.183Z,1620.00
2022-09-15T07:28:53.306Z,1687.00
2022-09-15T07:29:53.244Z,1708.00
2022-09-15T07:30:52.948Z,1699.00
2022-09-15T07:31:53.228Z,1627.00
2022-09-15T07:32:52.982Z,1553.00
2022-09-15T07:33:53.259Z,1488.00
2022-09-15T07:34:56.483Z,1634.00
2022-09-15T07:35:53.111Z,1911.00
2022-09-15T07:36:53.011Z,2076.00
2022-09-15T07:37:52.938Z,2222.00
2022-09-15T07:38:53.096Z,2342.00
2022-09-15T07:39:52.881Z,2333.00
2022-09-15T07:40:52.805Z,2250.00
2022-09-15T07:41:52.950Z,2348.00
2022-09-15T07:42:53.344Z,2294.00
2022-09-15T07:43:52.884Z,2133.00
2022-09-15T07:44:52.898Z,2089.00
2022-09-15T07:45:52.955Z,2194.00
2022-09-15T07:46:52.912Z,2313.00
2022-09-15T07:47:52.796Z,2379.00
2022-09-15T07:48:52.988Z,2159.00
2022-09-15T07:49:53.332Z,2106.00
2022-09-15T07:50:52.874Z,2092.00
2022-09-15T07:51:52.877Z,2217.00
2022-09-15T07:52:52.778Z,2321.00
2022-09-15T07:53:53.225Z,2578.00
2022-09-15T07:54:53.370Z,2741.00
2022-09-15T07:55:52.758Z,2749.00
2022-09-15T07:56:52.986Z,2581.00
2022-09-15T07:57:52.742Z,2590.00
2022-09-15T07:58:53.181Z,2659.00
2022-09-15T07:59:53.608Z,2842.00
2022-09-15T08:00:52.953Z,2885.00
2022-09-15T08:01:52.881Z,2593.00
2022-09-15T08:02:52.594Z,2672.00
2022-09-15T08:03:52.794Z,2721.00
2022-09-15T08:04:52.564Z,2804.00
2022-09-15T08:05:53.232Z,2717.00
2022-09-15T08:06:52.525Z,2718.00
2022-09-15T08:07:53.059Z,2640.00
2022-09-15T08:08:57.751Z,2470.00
2022-09-15T08:09:52.693Z,2395.00
2022-09-15T08:10:52.658Z,2454.00
2022-09-15T08:11:52.899Z,2369.00
2022-09-15T08:12:52.669Z,2410.00
2022-09-15T08:13:52.793Z,2424.00
2022-09-15T08:14:52.779Z,2283.00
2022-09-15T08:15:52.562Z,2067.00
2022-09-15T08:16:52.489Z,2280.00
2022-09-15T08:17:52.522Z,2595.00
2022-09-15T08:18:52.508Z,2696.00
2022-09-15T08:19:52.407Z,2722.00
2022-09-15T08:20:52.393Z,2713.00
2022-09-15T08:21:52.364Z,2645.00
2022-09-15T08:22:52.351Z,2559.00
2022-09-15T08:23:52.343Z,2370.00
2022-09-15T08:24:52.384Z,2316.00
2022-09-15T08:25:52.310Z,2416.00
2022-09-15T08:26:52.351Z,2640.00
2022-09-15T08:27:52.294Z,2775.00
2022-09-15T08:28:52.481Z,2830.00
2022-09-15T08:29:52.349Z,2872.00
2022-09-15T08:30:52.350Z,2882.00
2022-09-15T08:31:52.260Z,2996.00
2022-09-15T08:32:52.303Z,3138.00
2022-09-15T08:33:52.238Z,3164.00
2022-09-15T08:34:52.236Z,3206.00
2022-09-15T08:35:52.225Z,3297.00
2022-09-15T08:36:52.197Z,3349.00
2022-09-15T08:37:52.187Z,3657.00
2022-09-15T08:38:52.193Z,3726.00
2022-09-15T08:39:52.239Z,3682.00
2022-09-15T08:40:52.187Z,3655.00
2022-09-15T08:41:52.165Z,3416.00
2022-09-15T08:42:52.138Z,3072.00
2022-09-15T08:43:52.226Z,3016.00
2022-09-15T08:44:52.110Z,3236.00
2022-09-15T08:45:52.108Z,3130.00
2022-09-15T08:46:52.230Z,3043.00
2022-09-15T08:47:52.124Z,2980.00
2022-09-15T08:48:52.075Z,2903.00
2022-09-15T08:49:52.728Z,2577.00
2022-09-15T08:50:52.044Z,2300.00
2022-09-15T08:51:52.093Z,2012.00
2022-09-15T08:52:52.018Z,1901.00
2022-09-15T08:54:44.359Z,1967.00
2022-09-15T08:55:45.321Z,1853.00
2022-09-15T08:56:45.290Z,1922.00
2022-09-15T08:57:45.375Z,1918.00
2022-09-15T08:58:45.271Z,2117.00
2022-09-15T08:59:45.266Z,2588.00
2022-09-15T09:00:45.268Z,2873.00
2022-09-15T09:01:45.295Z,2979.00
2022-09-15T09:02:45.326Z,3279.00
2022-09-15T09:03:45.219Z,3682.00
2022-09-15T09:04:45.201Z,3829.00
2022-09-15T09:05:45.231Z,4372.00
2022-09-15T09:06:45.186Z,4383.00
2022-09-15T09:07:45.194Z,4292.00
2022-09-15T09:08:45.334Z,3929.00
2022-09-15T09:09:45.162Z,3668.00
2022-09-15T09:10:45.148Z,3512.00
2022-09-15T09:11:45.135Z,3350.00
2022-09-15T09:12:45.150Z,2988.00
2022-09-15T09:13:45.127Z,2467.00
2022-09-15T09:14:45.093Z,2254.00
2022-09-15T09:15:45.147Z,2274.00
2022-09-15T09:16:45.074Z,2281.00
2022-09-15T09:17:45.088Z,2320.00
2022-09-15T09:18:45.075Z,2508.00
2022-09-15T09:19:45.052Z,3069.00
2022-09-15T09:20:45.032Z,3938.00
2022-09-15T09:21:45.035Z,4120.00
2022-09-15T09:22:45.044Z,4415.00
2022-09-15T09:23:45.125Z,4220.00
2022-09-15T09:24:45.005Z,4580.00
2022-09-15T09:25:44.980Z,4614.00
2022-09-15T09:26:44.974Z,4694.00
2022-09-15T09:27:44.966Z,4193.00
2022-09-15T09:28:44.965Z,4262.00
2022-09-15T09:29:44.955Z,3881.00
2022-09-15T09:30:44.992Z,3626.00
2022-09-15T09:31:44.911Z,3648.00
2022-09-15T09:32:44.921Z,3757.00
2022-09-15T09:33:47.782Z,3847.00
2022-09-15T09:34:44.887Z,3845.00
2022-09-15T09:35:44.907Z,3620.00
2022-09-15T09:36:44.872Z,3480.00
2022-09-15T09:37:44.861Z,3641.00
2022-09-15T09:38:44.863Z,3814.00
2022-09-15T09:39:44.864Z,3917.00
2022-09-15T09:40:44.832Z,3633.00
2022-09-15T09:41:44.838Z,3247.00
2022-09-15T09:42:44.800Z,2766.00
2022-09-15T09:43:44.901Z,2441.00
2022-09-15T09:44:44.776Z,2206.00
2022-09-15T09:45:44.822Z,2562.00
2022-09-15T09:46:44.764Z,3223.00
2022-09-15T09:47:44.757Z,3745.00
2022-09-15T09:48:44.736Z,4086.00
2022-09-15T09:49:44.751Z,4009.00
2022-09-15T09:50:44.708Z,3915.00
2022-09-15T09:51:44.737Z,3932.00
2022-09-15T09:52:44.694Z,4311.00
2022-09-15T09:53:44.783Z,4703.00
2022-09-15T09:54:44.673Z,4951.00
2022-09-15T09:55:44.704Z,4654.00
2022-09-15T09:56:44.649Z,4055.00
2022-09-15T09:57:44.668Z,3904.00
2022-09-15T09:58:44.792Z,3630.00
2022-09-15T09:59:44.636Z,4051.00
2022-09-15T10:00:44.610Z,4272.00
2022-09-15T10:01:44.672Z,4212.00
2022-09-15T10:02:44.591Z,4054.00
2022-09-15T10:03:44.592Z,4279.00
2022-09-15T10:04:44.699Z,4540.00
2022-09-15T10:05:44.571Z,4796.00
2022-09-15T10:06:44.577Z,4989.00
2022-09-15T10:07:44.689Z,5087.00
2022-09-15T10:08:44.593Z,5444.00
2022-09-15T10:09:44.593Z,5683.00
2022-09-15T10:10:44.556Z,5787.00
2022-09-15T10:11:44.499Z,5294.00
2022-09-15T10:12:44.565Z,6653.00
2022-09-15T10:13:44.572Z,5660.00
2022-09-15T10:14:44.615Z,5943.00
2022-09-15T10:15:44.468Z,6007.00
2022-09-15T10:16:44.474Z,4501.00
2022-09-15T10:17:44.459Z,10411.00
2022-09-15T10:18:44.468Z,7089.00
2022-09-15T10:19:44.426Z,6746.00
2022-09-15T10:20:44.416Z,7422.00
2022-09-15T10:21:44.406Z,7237.00
2022-09-15T10:22:44.383Z,7585.00
2022-09-15T10:23:44.386Z,5922.00
2022-09-15T10:24:44.385Z,10355.00
2022-09-15T10:25:58.642Z,6638.00
2022-09-15T10:26:44.383Z,7520.00
2022-09-15T10:27:44.339Z,2107.00
2022-09-15T10:28:44.312Z,9476.00
2022-09-15T10:29:44.362Z,5062.00
2022-09-15T10:30:44.287Z,8220.00
2022-09-15T10:31:44.458Z,2735.00
2022-09-15T10:32:44.347Z,8287.00
2022-09-15T10:33:44.274Z,10132.00
2022-09-15T10:34:44.523Z,10956.00
2022-09-15T10:35:44.540Z,8605.00
2022-09-15T10:36:44.249Z,10973.00
2022-09-15T10:37:44.248Z,10973.00
2022-09-15T10:38:44.284Z,9372.00
2022-09-15T10:39:44.209Z,11012.00
2022-09-15T10:40:44.215Z,7882.00
2022-09-15T10:41:44.245Z,5168.00
2022-09-15T10:42:44.183Z,5518.00
2022-09-15T10:43:44.565Z,11431.00
2022-09-15T10:44:44.167Z,13163.00
2022-09-15T10:45:44.219Z,9137.00
2022-09-15T10:46:44.125Z,5312.00
2022-09-15T10:47:44.118Z,30359.00
2022-09-15T10:48:44.108Z,24951.00
2022-09-15T10:49:44.139Z,11226.00
2022-09-15T10:50:44.096Z,16083.00
2022-09-15T10:51:44.215Z,14548.00
2022-09-15T10:52:44.100Z,11525.00
2022-09-15T10:53:44.171Z,21114.00
2022-09-15T10:54:44.032Z,11917.00
2022-09-15T10:55:52.911Z,13201.00
2022-09-15T10:56:44.044Z,15304.00
2022-09-15T10:57:44.016Z,4497.00
2022-09-15T10:58:45.777Z,33391.00
2022-09-15T10:59:43.994Z,31760.00
2022-09-15T11:00:44.080Z,27000.00
2022-09-15T11:01:44.065Z,12686.00
2022-09-15T11:02:44.055Z,18104.00
2022-09-15T11:03:43.956Z,11330.00
2022-09-15T11:04:43.950Z,11134.00
2022-09-15T11:05:43.929Z,9532.00
2022-09-15T11:06:44.034Z,9457.00
2022-09-15T11:07:43.938Z,14291.00
2022-09-15T11:08:43.884Z,8110.00
2022-09-15T11:09:43.871Z,7042.00
2022-09-15T11:10:43.863Z,6252.00
2022-09-15T11:11:43.871Z,5308.00
2022-09-15T11:12:43.853Z,4335.00
2022-09-15T11:13:43.901Z,3347.00
2022-09-15T11:14:43.838Z,2387.00
2022-09-15T11:15:43.812Z,1816.00
2022-09-15T11:16:43.885Z,1407.00
2022-09-15T11:17:43.823Z,1034.00
2022-09-15T11:18:43.811Z,724.00
2022-09-15T11:19:43.903Z,437.00
2022-09-15T11:20:43.788Z,319.00
2022-09-15T11:21:43.799Z,332.00
2022-09-15T11:22:48.734Z,446.00
2022-09-15T11:23:43.808Z,594.00
2022-09-15T11:24:43.722Z,831.00
2022-09-15T11:25:43.713Z,975.00
2022-09-15T11:26:43.722Z,1130.00
2022-09-15T11:27:43.718Z,1206.00
2022-09-15T11:28:43.873Z,1152.00
2022-09-15T11:29:43.670Z,1132.00
2022-09-15T11:30:47.652Z,1172.00
2022-09-15T11:31:43.798Z,1107.00
2022-09-15T11:32:43.967Z,1152.00
2022-09-15T11:33:43.638Z,1247.00
2022-09-15T11:34:43.610Z,1338.00
2022-09-15T11:35:43.618Z,1527.00
2022-09-15T11:36:43.637Z,1862.00
2022-09-15T11:37:43.608Z,2075.00
2022-09-15T11:38:43.574Z,2243.00
2022-09-15T11:39:43.561Z,2237.00
2022-09-15T11:40:43.547Z,2198.00
2022-09-15T11:41:43.596Z,2072.00
2022-09-15T11:42:43.692Z,1856.00
2022-09-15T11:43:43.519Z,1688.00
2022-09-15T11:44:43.515Z,1499.00
2022-09-15T11:45:43.503Z,1425.00
2022-09-15T11:46:43.583Z,1369.00
2022-09-15T11:47:43.560Z,1359.00
2022-09-15T11:48:43.465Z,1375.00
2022-09-15T11:49:43.454Z,1405.00
2022-09-15T11:50:43.443Z,1487.00
2022-09-15T11:51:43.479Z,1505.00
2022-09-15T11:52:44.360Z,1501.00
2022-09-15T11:53:45.148Z,1486.00
2022-09-15T11:54:44.334Z,1452.00
2022-09-15T11:55:43.593Z,1442.00
2022-09-15T11:56:44.250Z,1468.00
2022-09-15T11:57:45.363Z,1456.00
2022-09-15T11:58:43.450Z,1426.00
2022-09-15T11:59:44.250Z,1360.00
2022-09-15T12:00:44.392Z,1260.00
2022-09-15T12:01:43.521Z,1201.00
2022-09-15T12:02:43.418Z,1122.00
2022-09-15T12:03:43.468Z,1098.00
2022-09-15T12:04:43.338Z,1099.00
2022-09-15T12:05:43.939Z,1112.00
2022-09-15T12:06:45.824Z,1150.00
2022-09-15T12:07:43.374Z,1230.00
2022-09-15T12:08:43.419Z,1277.00
2022-09-15T12:09:43.334Z,1304.00
2022-09-15T12:10:43.397Z,1405.00
2022-09-15T12:11:43.367Z,1592.00
2022-09-15T12:12:44.350Z,1635.00
2022-09-15T12:13:43.341Z,1847.00
2022-09-15T12:14:43.330Z,2057.00
2022-09-15T12:15:43.307Z,2226.00
2022-09-15T12:16:45.796Z,2580.00
2022-09-15T12:17:43.894Z,2826.00
2022-09-15T12:18:46.169Z,2752.00
2022-09-15T12:19:43.763Z,5219.00
2022-09-15T12:20:43.262Z,4430.00
2022-09-15T12:21:43.390Z,4431.00
2022-09-15T12:22:43.205Z,73795.00
2022-09-15T12:23:43.174Z,58269.00
2022-09-15T12:24:44.334Z,7082.00
2022-09-15T12:25:43.157Z,4218.00
2022-09-15T12:26:43.161Z,74156.00
2022-09-15T12:27:43.853Z,59216.00
2022-09-15T12:28:44.252Z,3945.00
2022-09-15T12:29:43.144Z,20487.00
2022-09-15T12:30:43.876Z,77776.00
2022-09-15T12:31:43.083Z,75757.00
2022-09-15T12:32:43.075Z,70948.00
2022-09-15T12:33:43.786Z,75998.00
2022-09-15T12:34:43.952Z,75187.00
2022-09-15T12:35:43.904Z,78891.00
2022-09-15T12:36:43.779Z,75697.00
2022-09-15T12:37:43.104Z,78124.00